ΕΜΥ, Εθνική Μετεωρολογική Υπηρεσία - Δελτία Καιρού, Προγνώσεις

ΑΕΡΟΝΑΥΤΙΛΙΑ

GREEK AIRPORTS CODES

LGKY 250400Z 32005KT 9999 FEW006 21/20 Q1010 RMK FEW180=

EUROPEAN AIRPORTS CODES

LFPO 250400Z 21013KT 9999 SCT020 BKN031 10/06 Q0998 NOSIG=